sensor_id;sensor_type;location;lat;lon;timestamp;P1;durP1;ratioP1;P2;durP2;ratioP2
9997;SDS011;5038;53.064;8.624;2023-12-22T00:00:04;7.43;;;2.33;;
9997;SDS011;5038;53.064;8.624;2023-12-22T00:02:34;8.30;;;4.00;;
9997;SDS011;5038;53.064;8.624;2023-12-22T00:05:03;8.10;;;2.70;;
9997;SDS011;5038;53.064;8.624;2023-12-22T00:07:31;9.73;;;3.03;;
9997;SDS011;5038;53.064;8.624;2023-12-22T00:09:59;8.97;;;2.93;;
9997;SDS011;5038;53.064;8.624;2023-12-22T00:12:28;9.20;;;2.50;;
9997;SDS011;5038;53.064;8.624;2023-12-22T00:14:56;6.50;;;2.87;;
9997;SDS011;5038;53.064;8.624;2023-12-22T00:17:26;8.53;;;2.40;;
9997;SDS011;5038;53.064;8.624;2023-12-22T00:19:54;7.53;;;2.40;;
9997;SDS011;5038;53.064;8.624;2023-12-22T00:22:25;5.47;;;2.33;;
9997;SDS011;5038;53.064;8.624;2023-12-22T00:24:54;7.57;;;2.47;;
9997;SDS011;5038;53.064;8.624;2023-12-22T00:27:22;7.10;;;2.37;;
9997;SDS011;5038;53.064;8.624;2023-12-22T00:29:50;11.60;;;2.77;;
9997;SDS011;5038;53.064;8.624;2023-12-22T00:32:18;10.30;;;2.40;;
9997;SDS011;5038;53.064;8.624;2023-12-22T00:34:48;7.30;;;2.30;;
9997;SDS011;5038;53.064;8.624;2023-12-22T00:37:16;6.03;;;1.73;;
9997;SDS011;5038;53.064;8.624;2023-12-22T00:39:45;5.13;;;2.37;;
9997;SDS011;5038;53.064;8.624;2023-12-22T00:42:13;9.03;;;1.77;;
9997;SDS011;5038;53.064;8.624;2023-12-22T00:44:41;3.00;;;1.30;;
9997;SDS011;5038;53.064;8.624;2023-12-22T00:47:09;6.27;;;2.30;;
9997;SDS011;5038;53.064;8.624;2023-12-22T00:49:38;5.87;;;1.97;;
9997;SDS011;5038;53.064;8.624;2023-12-22T00:52:08;6.03;;;3.00;;
9997;SDS011;5038;53.064;8.624;2023-12-22T00:54:36;8.00;;;2.60;;
9997;SDS011;5038;53.064;8.624;2023-12-22T00:57:04;12.03;;;2.70;;
9997;SDS011;5038;53.064;8.624;2023-12-22T00:59:33;6.93;;;1.97;;
9997;SDS011;5038;53.064;8.624;2023-12-22T01:02:01;6.67;;;1.83;;
9997;SDS011;5038;53.064;8.624;2023-12-22T01:04:29;7.93;;;2.20;;
9997;SDS011;5038;53.064;8.624;2023-12-22T01:06:57;7.83;;;2.10;;
9997;SDS011;5038;53.064;8.624;2023-12-22T01:09:27;7.27;;;2.40;;
9997;SDS011;5038;53.064;8.624;2023-12-22T01:11:55;10.30;;;2.97;;
9997;SDS011;5038;53.064;8.624;2023-12-22T01:14:25;13.97;;;3.00;;
9997;SDS011;5038;53.064;8.624;2023-12-22T01:16:54;9.10;;;2.50;;
9997;SDS011;5038;53.064;8.624;2023-12-22T01:19:22;9.60;;;2.50;;
9997;SDS011;5038;53.064;8.624;2023-12-22T01:21:49;12.10;;;3.30;;
9997;SDS011;5038;53.064;8.624;2023-12-22T01:24:18;9.70;;;2.60;;
9997;SDS011;5038;53.064;8.624;2023-12-22T01:26:48;9.33;;;3.27;;
9997;SDS011;5038;53.064;8.624;2023-12-22T01:29:16;15.40;;;3.10;;
9997;SDS011;5038;53.064;8.624;2023-12-22T01:31:44;12.03;;;2.63;;
9997;SDS011;5038;53.064;8.624;2023-12-22T01:34:13;12.40;;;3.10;;
9997;SDS011;5038;53.064;8.624;2023-12-22T01:36:41;15.27;;;3.10;;
9997;SDS011;5038;53.064;8.624;2023-12-22T01:39:09;8.73;;;3.77;;
9997;SDS011;5038;53.064;8.624;2023-12-22T01:41:38;12.60;;;2.77;;
9997;SDS011;5038;53.064;8.624;2023-12-22T01:44:07;12.00;;;3.73;;
9997;SDS011;5038;53.064;8.624;2023-12-22T01:46:36;8.40;;;3.10;;
9997;SDS011;5038;53.064;8.624;2023-12-22T01:49:04;7.40;;;2.70;;
9997;SDS011;5038;53.064;8.624;2023-12-22T01:51:35;8.70;;;2.70;;
9997;SDS011;5038;53.064;8.624;2023-12-22T01:54:06;9.77;;;3.00;;
9997;SDS011;5038;53.064;8.624;2023-12-22T01:56:35;7.10;;;2.17;;
9997;SDS011;5038;53.064;8.624;2023-12-22T01:59:03;5.83;;;1.93;;
9997;SDS011;5038;53.064;8.624;2023-12-22T02:01:33;7.87;;;1.73;;
9997;SDS011;5038;53.064;8.624;2023-12-22T02:04:02;3.27;;;0.93;;
9997;SDS011;5038;53.064;8.624;2023-12-22T02:06:32;3.27;;;1.30;;
9997;SDS011;5038;53.064;8.624;2023-12-22T02:09:03;4.30;;;1.00;;
9997;SDS011;5038;53.064;8.624;2023-12-22T02:11:31;4.03;;;1.10;;
9997;SDS011;5038;53.064;8.624;2023-12-22T02:13:59;4.27;;;1.23;;
9997;SDS011;5038;53.064;8.624;2023-12-22T02:16:31;6.67;;;1.83;;
9997;SDS011;5038;53.064;8.624;2023-12-22T02:19:10;4.60;;;1.73;;
9997;SDS011;5038;53.064;8.624;2023-12-22T02:22:02;7.20;;;2.47;;
9997;SDS011;5038;53.064;8.624;2023-12-22T02:24:36;6.73;;;2.10;;
9997;SDS011;5038;53.064;8.624;2023-12-22T02:27:06;6.93;;;2.27;;
9997;SDS011;5038;53.064;8.624;2023-12-22T02:29:54;8.67;;;2.67;;
9997;SDS011;5038;53.064;8.624;2023-12-22T02:32:30;9.30;;;2.53;;
9997;SDS011;5038;53.064;8.624;2023-12-22T02:35:03;12.23;;;2.67;;
9997;SDS011;5038;53.064;8.624;2023-12-22T02:37:33;12.73;;;3.80;;
9997;SDS011;5038;53.064;8.624;2023-12-22T02:40:05;9.53;;;2.70;;
9997;SDS011;5038;53.064;8.624;2023-12-22T02:42:36;12.47;;;3.50;;
9997;SDS011;5038;53.064;8.624;2023-12-22T02:45:05;7.27;;;2.60;;
9997;SDS011;5038;53.064;8.624;2023-12-22T02:47:34;7.40;;;2.17;;
9997;SDS011;5038;53.064;8.624;2023-12-22T02:50:02;11.23;;;3.07;;
9997;SDS011;5038;53.064;8.624;2023-12-22T02:52:31;12.53;;;2.60;;
9997;SDS011;5038;53.064;8.624;2023-12-22T02:54:59;8.73;;;3.30;;
9997;SDS011;5038;53.064;8.624;2023-12-22T02:57:29;7.57;;;2.10;;
9997;SDS011;5038;53.064;8.624;2023-12-22T02:59:57;11.60;;;3.40;;
9997;SDS011;5038;53.064;8.624;2023-12-22T03:02:25;13.00;;;3.27;;
9997;SDS011;5038;53.064;8.624;2023-12-22T03:04:54;8.67;;;3.07;;
9997;SDS011;5038;53.064;8.624;2023-12-22T03:07:22;9.77;;;2.80;;
9997;SDS011;5038;53.064;8.624;2023-12-22T03:09:50;11.77;;;2.87;;
9997;SDS011;5038;53.064;8.624;2023-12-22T03:12:19;11.97;;;3.13;;
9997;SDS011;5038;53.064;8.624;2023-12-22T03:14:48;13.10;;;3.30;;
9997;SDS011;5038;53.064;8.624;2023-12-22T03:17:16;14.37;;;3.70;;
9997;SDS011;5038;53.064;8.624;2023-12-22T03:19:45;10.23;;;3.40;;
9997;SDS011;5038;53.064;8.624;2023-12-22T03:22:13;11.67;;;3.17;;
9997;SDS011;5038;53.064;8.624;2023-12-22T03:24:41;10.90;;;3.33;;
9997;SDS011;5038;53.064;8.624;2023-12-22T03:27:09;14.23;;;3.90;;
9997;SDS011;5038;53.064;8.624;2023-12-22T03:29:42;10.00;;;3.53;;
9997;SDS011;5038;53.064;8.624;2023-12-22T03:32:12;6.80;;;2.17;;
9997;SDS011;5038;53.064;8.624;2023-12-22T03:34:40;7.13;;;2.63;;
9997;SDS011;5038;53.064;8.624;2023-12-22T03:37:08;8.93;;;2.80;;
9997;SDS011;5038;53.064;8.624;2023-12-22T03:39:37;7.73;;;2.90;;
9997;SDS011;5038;53.064;8.624;2023-12-22T03:42:05;11.20;;;2.63;;
9997;SDS011;5038;53.064;8.624;2023-12-22T03:44:33;7.30;;;2.50;;
9997;SDS011;5038;53.064;8.624;2023-12-22T03:47:02;8.70;;;2.73;;
9997;SDS011;5038;53.064;8.624;2023-12-22T03:49:32;7.20;;;2.47;;
9997;SDS011;5038;53.064;8.624;2023-12-22T03:52:00;6.73;;;2.00;;
9997;SDS011;5038;53.064;8.624;2023-12-22T03:54:28;6.13;;;2.67;;
9997;SDS011;5038;53.064;8.624;2023-12-22T03:56:57;6.20;;;1.90;;
9997;SDS011;5038;53.064;8.624;2023-12-22T03:59:25;4.70;;;1.93;;
9997;SDS011;5038;53.064;8.624;2023-12-22T04:01:53;8.00;;;2.27;;
9997;SDS011;5038;53.064;8.624;2023-12-22T04:04:23;8.47;;;2.10;;
9997;SDS011;5038;53.064;8.624;2023-12-22T04:06:55;13.23;;;2.97;;
9997;SDS011;5038;53.064;8.624;2023-12-22T04:09:24;13.17;;;2.83;;
9997;SDS011;5038;53.064;8.624;2023-12-22T04:11:52;10.03;;;3.50;;
9997;SDS011;5038;53.064;8.624;2023-12-22T04:14:20;11.60;;;3.30;;
9997;SDS011;5038;53.064;8.624;2023-12-22T04:16:48;12.30;;;3.13;;
9997;SDS011;5038;53.064;8.624;2023-12-22T04:19:19;13.90;;;3.20;;
9997;SDS011;5038;53.064;8.624;2023-12-22T04:21:48;10.90;;;3.70;;
9997;SDS011;5038;53.064;8.624;2023-12-22T04:24:17;14.73;;;3.67;;
9997;SDS011;5038;53.064;8.624;2023-12-22T04:26:45;9.47;;;3.93;;
9997;SDS011;5038;53.064;8.624;2023-12-22T04:29:14;10.80;;;3.47;;
9997;SDS011;5038;53.064;8.624;2023-12-22T04:31:42;13.20;;;4.40;;
9997;SDS011;5038;53.064;8.624;2023-12-22T04:34:12;13.60;;;5.07;;
9997;SDS011;5038;53.064;8.624;2023-12-22T04:36:42;10.70;;;3.70;;
9997;SDS011;5038;53.064;8.624;2023-12-22T04:39:10;11.60;;;3.30;;
9997;SDS011;5038;53.064;8.624;2023-12-22T04:41:40;8.90;;;3.60;;
9997;SDS011;5038;53.064;8.624;2023-12-22T04:44:08;14.83;;;4.07;;
9997;SDS011;5038;53.064;8.624;2023-12-22T04:46:36;11.50;;;3.87;;
9997;SDS011;5038;53.064;8.624;2023-12-22T04:49:05;17.47;;;4.90;;
9997;SDS011;5038;53.064;8.624;2023-12-22T04:51:33;14.60;;;4.23;;
9997;SDS011;5038;53.064;8.624;2023-12-22T04:54:01;16.70;;;4.03;;
9997;SDS011;5038;53.064;8.624;2023-12-22T04:56:30;15.73;;;4.30;;
9997;SDS011;5038;53.064;8.624;2023-12-22T04:59:00;19.23;;;4.17;;
9997;SDS011;5038;53.064;8.624;2023-12-22T05:01:28;13.40;;;4.73;;
9997;SDS011;5038;53.064;8.624;2023-12-22T05:03:56;11.37;;;4.20;;
9997;SDS011;5038;53.064;8.624;2023-12-22T05:06:24;13.63;;;5.07;;
9997;SDS011;5038;53.064;8.624;2023-12-22T05:08:53;25.27;;;5.13;;
9997;SDS011;5038;53.064;8.624;2023-12-22T05:11:21;10.97;;;3.50;;
9997;SDS011;5038;53.064;8.624;2023-12-22T05:13:50;11.40;;;3.60;;
9997;SDS011;5038;53.064;8.624;2023-12-22T05:16:20;11.33;;;3.67;;
9997;SDS011;5038;53.064;8.624;2023-12-22T05:18:48;8.73;;;3.13;;
9997;SDS011;5038;53.064;8.624;2023-12-22T05:21:16;5.40;;;2.00;;
9997;SDS011;5038;53.064;8.624;2023-12-22T05:23:45;7.93;;;2.67;;
9997;SDS011;5038;53.064;8.624;2023-12-22T05:26:16;9.20;;;2.40;;
9997;SDS011;5038;53.064;8.624;2023-12-22T05:28:45;12.70;;;4.07;;
9997;SDS011;5038;53.064;8.624;2023-12-22T05:31:13;13.80;;;3.73;;
9997;SDS011;5038;53.064;8.624;2023-12-22T05:33:43;7.27;;;3.10;;
9997;SDS011;5038;53.064;8.624;2023-12-22T05:36:11;13.33;;;3.17;;
9997;SDS011;5038;53.064;8.624;2023-12-22T05:38:40;6.40;;;1.97;;
9997;SDS011;5038;53.064;8.624;2023-12-22T05:41:08;6.30;;;2.23;;
9997;SDS011;5038;53.064;8.624;2023-12-22T05:43:36;6.67;;;1.90;;
9997;SDS011;5038;53.064;8.624;2023-12-22T05:46:04;5.00;;;1.33;;
9997;SDS011;5038;53.064;8.624;2023-12-22T05:48:33;6.37;;;1.90;;
9997;SDS011;5038;53.064;8.624;2023-12-22T05:51:03;6.43;;;2.10;;
9997;SDS011;5038;53.064;8.624;2023-12-22T05:53:34;4.90;;;1.90;;
9997;SDS011;5038;53.064;8.624;2023-12-22T05:56:02;11.57;;;2.37;;
9997;SDS011;5038;53.064;8.624;2023-12-22T05:58:31;4.23;;;1.40;;
9997;SDS011;5038;53.064;8.624;2023-12-22T06:00:59;3.50;;;1.50;;
9997;SDS011;5038;53.064;8.624;2023-12-22T06:03:27;5.87;;;1.70;;
9997;SDS011;5038;53.064;8.624;2023-12-22T06:05:55;5.20;;;1.63;;
9997;SDS011;5038;53.064;8.624;2023-12-22T06:08:25;8.83;;;2.80;;
9997;SDS011;5038;53.064;8.624;2023-12-22T06:10:53;5.90;;;2.33;;
9997;SDS011;5038;53.064;8.624;2023-12-22T06:13:22;5.73;;;2.20;;
9997;SDS011;5038;53.064;8.624;2023-12-22T06:15:51;8.60;;;2.33;;
9997;SDS011;5038;53.064;8.624;2023-12-22T06:18:19;12.70;;;3.60;;
9997;SDS011;5038;53.064;8.624;2023-12-22T06:20:47;6.70;;;2.70;;
9997;SDS011;5038;53.064;8.624;2023-12-22T06:23:15;7.90;;;2.27;;
9997;SDS011;5038;53.064;8.624;2023-12-22T06:25:46;10.17;;;2.27;;
9997;SDS011;5038;53.064;8.624;2023-12-22T06:28:14;10.13;;;2.93;;
9997;SDS011;5038;53.064;8.624;2023-12-22T06:30:44;9.83;;;2.67;;
9997;SDS011;5038;53.064;8.624;2023-12-22T06:33:13;5.83;;;2.00;;
9997;SDS011;5038;53.064;8.624;2023-12-22T06:35:41;7.17;;;2.33;;
9997;SDS011;5038;53.064;8.624;2023-12-22T06:38:11;7.07;;;2.10;;
9997;SDS011;5038;53.064;8.624;2023-12-22T06:40:39;7.07;;;2.60;;
9997;SDS011;5038;53.064;8.624;2023-12-22T06:43:09;9.87;;;2.70;;
9997;SDS011;5038;53.064;8.624;2023-12-22T06:45:37;10.13;;;2.57;;
9997;SDS011;5038;53.064;8.624;2023-12-22T06:48:06;10.63;;;3.13;;
9997;SDS011;5038;53.064;8.624;2023-12-22T06:50:36;5.50;;;2.43;;
9997;SDS011;5038;53.064;8.624;2023-12-22T06:53:06;13.17;;;3.43;;
9997;SDS011;5038;53.064;8.624;2023-12-22T06:55:47;12.23;;;3.30;;
9997;SDS011;5038;53.064;8.624;2023-12-22T06:58:17;11.87;;;3.00;;
9997;SDS011;5038;53.064;8.624;2023-12-22T07:00:48;8.90;;;3.00;;
9997;SDS011;5038;53.064;8.624;2023-12-22T07:03:16;9.70;;;4.07;;
9997;SDS011;5038;53.064;8.624;2023-12-22T07:05:45;12.80;;;3.40;;
9997;SDS011;5038;53.064;8.624;2023-12-22T07:08:14;16.33;;;4.53;;
9997;SDS011;5038;53.064;8.624;2023-12-22T07:10:42;14.70;;;4.00;;
9997;SDS011;5038;53.064;8.624;2023-12-22T07:13:12;17.27;;;4.00;;
9997;SDS011;5038;53.064;8.624;2023-12-22T07:15:42;13.70;;;4.33;;
9997;SDS011;5038;53.064;8.624;2023-12-22T07:18:10;12.73;;;3.87;;
9997;SDS011;5038;53.064;8.624;2023-12-22T07:20:38;13.40;;;4.60;;
9997;SDS011;5038;53.064;8.624;2023-12-22T07:23:07;15.73;;;4.47;;
9997;SDS011;5038;53.064;8.624;2023-12-22T07:25:38;11.70;;;3.87;;
9997;SDS011;5038;53.064;8.624;2023-12-22T07:28:06;20.60;;;4.73;;
9997;SDS011;5038;53.064;8.624;2023-12-22T07:30:35;13.03;;;4.00;;
9997;SDS011;5038;53.064;8.624;2023-12-22T07:33:04;14.70;;;5.00;;
9997;SDS011;5038;53.064;8.624;2023-12-22T07:35:33;18.90;;;5.67;;
9997;SDS011;5038;53.064;8.624;2023-12-22T07:38:01;17.27;;;5.40;;
9997;SDS011;5038;53.064;8.624;2023-12-22T07:40:30;15.97;;;6.30;;
9997;SDS011;5038;53.064;8.624;2023-12-22T07:42:58;25.43;;;7.00;;
9997;SDS011;5038;53.064;8.624;2023-12-22T07:45:27;17.20;;;5.97;;
9997;SDS011;5038;53.064;8.624;2023-12-22T07:47:56;21.27;;;6.53;;
9997;SDS011;5038;53.064;8.624;2023-12-22T07:50:27;18.77;;;6.33;;
9997;SDS011;5038;53.064;8.624;2023-12-22T07:52:56;19.30;;;5.23;;
9997;SDS011;5038;53.064;8.624;2023-12-22T07:55:28;15.17;;;4.90;;
9997;SDS011;5038;53.064;8.624;2023-12-22T07:57:56;19.03;;;6.43;;
9997;SDS011;5038;53.064;8.624;2023-12-22T08:00:24;11.27;;;5.07;;
9997;SDS011;5038;53.064;8.624;2023-12-22T08:02:52;14.67;;;5.00;;
9997;SDS011;5038;53.064;8.624;2023-12-22T08:05:20;17.17;;;5.23;;
9997;SDS011;5038;53.064;8.624;2023-12-22T08:07:50;14.50;;;4.60;;
9997;SDS011;5038;53.064;8.624;2023-12-22T08:10:19;11.70;;;5.20;;
9997;SDS011;5038;53.064;8.624;2023-12-22T08:12:47;16.60;;;4.90;;
9997;SDS011;5038;53.064;8.624;2023-12-22T08:15:15;11.90;;;4.87;;
9997;SDS011;5038;53.064;8.624;2023-12-22T08:17:54;15.47;;;4.87;;
9997;SDS011;5038;53.064;8.624;2023-12-22T08:20:23;17.23;;;4.93;;
9997;SDS011;5038;53.064;8.624;2023-12-22T08:22:59;16.53;;;5.93;;
9997;SDS011;5038;53.064;8.624;2023-12-22T08:25:34;22.33;;;5.80;;
9997;SDS011;5038;53.064;8.624;2023-12-22T08:28:03;22.43;;;5.97;;
9997;SDS011;5038;53.064;8.624;2023-12-22T08:30:31;15.03;;;5.63;;
9997;SDS011;5038;53.064;8.624;2023-12-22T08:33:00;20.80;;;6.37;;
9997;SDS011;5038;53.064;8.624;2023-12-22T08:35:28;14.40;;;5.33;;
9997;SDS011;5038;53.064;8.624;2023-12-22T08:37:57;14.60;;;5.63;;
9997;SDS011;5038;53.064;8.624;2023-12-22T08:40:27;14.97;;;5.53;;
9997;SDS011;5038;53.064;8.624;2023-12-22T08:42:55;18.83;;;6.10;;
9997;SDS011;5038;53.064;8.624;2023-12-22T08:45:26;18.20;;;5.50;;
9997;SDS011;5038;53.064;8.624;2023-12-22T08:47:55;20.73;;;5.13;;
9997;SDS011;5038;53.064;8.624;2023-12-22T08:50:24;14.70;;;4.67;;
9997;SDS011;5038;53.064;8.624;2023-12-22T08:52:52;21.47;;;5.60;;
9997;SDS011;5038;53.064;8.624;2023-12-22T08:55:21;17.77;;;5.90;;
9997;SDS011;5038;53.064;8.624;2023-12-22T08:57:50;14.87;;;5.53;;
9997;SDS011;5038;53.064;8.624;2023-12-22T09:00:28;14.80;;;4.27;;
9997;SDS011;5038;53.064;8.624;2023-12-22T09:02:56;13.07;;;4.10;;
9997;SDS011;5038;53.064;8.624;2023-12-22T09:05:24;13.27;;;5.40;;
9997;SDS011;5038;53.064;8.624;2023-12-22T09:07:53;16.63;;;5.10;;
9997;SDS011;5038;53.064;8.624;2023-12-22T09:10:21;12.63;;;4.23;;
9997;SDS011;5038;53.064;8.624;2023-12-22T09:12:51;15.00;;;5.90;;
9997;SDS011;5038;53.064;8.624;2023-12-22T09:15:19;11.20;;;3.83;;
9997;SDS011;5038;53.064;8.624;2023-12-22T09:17:47;11.50;;;4.40;;
9997;SDS011;5038;53.064;8.624;2023-12-22T09:20:16;11.40;;;3.93;;
9997;SDS011;5038;53.064;8.624;2023-12-22T09:22:44;10.17;;;4.63;;
9997;SDS011;5038;53.064;8.624;2023-12-22T09:25:13;11.47;;;3.67;;
9997;SDS011;5038;53.064;8.624;2023-12-22T09:27:42;13.17;;;4.73;;
9997;SDS011;5038;53.064;8.624;2023-12-22T09:30:12;10.53;;;4.20;;
9997;SDS011;5038;53.064;8.624;2023-12-22T09:32:40;13.23;;;3.50;;
9997;SDS011;5038;53.064;8.624;2023-12-22T09:35:09;10.67;;;3.63;;
9997;SDS011;5038;53.064;8.624;2023-12-22T09:37:38;12.73;;;3.60;;
9997;SDS011;5038;53.064;8.624;2023-12-22T09:40:07;7.60;;;2.90;;
9997;SDS011;5038;53.064;8.624;2023-12-22T09:42:37;9.90;;;3.70;;
9997;SDS011;5038;53.064;8.624;2023-12-22T09:45:12;8.67;;;2.93;;
9997;SDS011;5038;53.064;8.624;2023-12-22T09:47:41;7.80;;;3.40;;
9997;SDS011;5038;53.064;8.624;2023-12-22T09:50:10;15.37;;;2.90;;
9997;SDS011;5038;53.064;8.624;2023-12-22T09:52:40;9.20;;;2.90;;
9997;SDS011;5038;53.064;8.624;2023-12-22T09:55:11;11.67;;;3.57;;
9997;SDS011;5038;53.064;8.624;2023-12-22T09:57:40;6.37;;;2.50;;
9997;SDS011;5038;53.064;8.624;2023-12-22T10:00:09;6.67;;;2.73;;
9997;SDS011;5038;53.064;8.624;2023-12-22T10:02:42;7.67;;;2.47;;
9997;SDS011;5038;53.064;8.624;2023-12-22T10:05:12;6.37;;;2.30;;
9997;SDS011;5038;53.064;8.624;2023-12-22T10:07:41;13.67;;;3.60;;
9997;SDS011;5038;53.064;8.624;2023-12-22T10:10:13;8.70;;;2.30;;
9997;SDS011;5038;53.064;8.624;2023-12-22T10:12:44;8.30;;;2.80;;
9997;SDS011;5038;53.064;8.624;2023-12-22T10:15:14;10.70;;;2.80;;
9997;SDS011;5038;53.064;8.624;2023-12-22T10:17:47;9.63;;;2.70;;
9997;SDS011;5038;53.064;8.624;2023-12-22T10:20:16;7.20;;;2.17;;
9997;SDS011;5038;53.064;8.624;2023-12-22T10:22:45;5.13;;;2.13;;
9997;SDS011;5038;53.064;8.624;2023-12-22T10:25:14;6.10;;;2.13;;
9997;SDS011;5038;53.064;8.624;2023-12-22T10:27:43;6.73;;;2.20;;
9997;SDS011;5038;53.064;8.624;2023-12-22T10:30:12;6.00;;;2.10;;
9997;SDS011;5038;53.064;8.624;2023-12-22T10:32:42;4.60;;;1.50;;
9997;SDS011;5038;53.064;8.624;2023-12-22T10:35:11;4.20;;;1.43;;
9997;SDS011;5038;53.064;8.624;2023-12-22T10:37:39;4.37;;;1.53;;
9997;SDS011;5038;53.064;8.624;2023-12-22T10:40:08;6.43;;;2.00;;
9997;SDS011;5038;53.064;8.624;2023-12-22T10:42:38;5.27;;;1.70;;
9997;SDS011;5038;53.064;8.624;2023-12-22T10:45:08;4.57;;;1.50;;
9997;SDS011;5038;53.064;8.624;2023-12-22T10:47:37;6.53;;;2.00;;
9997;SDS011;5038;53.064;8.624;2023-12-22T10:50:08;3.10;;;1.60;;
9997;SDS011;5038;53.064;8.624;2023-12-22T10:52:41;5.47;;;1.70;;
9997;SDS011;5038;53.064;8.624;2023-12-22T10:55:16;6.83;;;2.23;;
9997;SDS011;5038;53.064;8.624;2023-12-22T10:57:45;7.07;;;2.00;;
9997;SDS011;5038;53.064;8.624;2023-12-22T11:00:15;4.63;;;2.10;;
9997;SDS011;5038;53.064;8.624;2023-12-22T11:02:44;8.70;;;2.63;;
9997;SDS011;5038;53.064;8.624;2023-12-22T11:05:17;7.50;;;3.03;;
9997;SDS011;5038;53.064;8.624;2023-12-22T11:07:48;8.53;;;3.30;;
9997;SDS011;5038;53.064;8.624;2023-12-22T11:10:18;9.70;;;2.87;;
9997;SDS011;5038;53.064;8.624;2023-12-22T11:12:48;9.57;;;2.93;;
9997;SDS011;5038;53.064;8.624;2023-12-22T11:15:19;7.77;;;2.90;;
9997;SDS011;5038;53.064;8.624;2023-12-22T11:17:49;5.67;;;2.00;;
9997;SDS011;5038;53.064;8.624;2023-12-22T11:20:21;8.60;;;2.63;;
9997;SDS011;5038;53.064;8.624;2023-12-22T11:22:53;8.30;;;2.47;;
9997;SDS011;5038;53.064;8.624;2023-12-22T11:25:24;11.10;;;3.23;;
9997;SDS011;5038;53.064;8.624;2023-12-22T11:27:54;8.57;;;2.90;;
9997;SDS011;5038;53.064;8.624;2023-12-22T11:30:23;10.07;;;3.27;;
9997;SDS011;5038;53.064;8.624;2023-12-22T11:32:52;10.60;;;3.17;;
9997;SDS011;5038;53.064;8.624;2023-12-22T11:35:23;9.77;;;3.37;;
9997;SDS011;5038;53.064;8.624;2023-12-22T11:37:59;13.10;;;3.83;;
9997;SDS011;5038;53.064;8.624;2023-12-22T11:40:30;9.07;;;3.90;;
9997;SDS011;5038;53.064;8.624;2023-12-22T11:42:59;16.50;;;4.23;;
9997;SDS011;5038;53.064;8.624;2023-12-22T11:45:30;13.63;;;3.50;;
9997;SDS011;5038;53.064;8.624;2023-12-22T11:48:04;10.13;;;3.10;;
9997;SDS011;5038;53.064;8.624;2023-12-22T11:50:35;13.27;;;3.40;;
9997;SDS011;5038;53.064;8.624;2023-12-22T11:53:17;12.50;;;4.27;;
9997;SDS011;5038;53.064;8.624;2023-12-22T11:55:56;9.70;;;3.77;;
9997;SDS011;5038;53.064;8.624;2023-12-22T11:58:38;10.17;;;3.53;;
9997;SDS011;5038;53.064;8.624;2023-12-22T12:01:08;12.63;;;4.13;;
9997;SDS011;5038;53.064;8.624;2023-12-22T12:03:37;12.83;;;3.83;;
9997;SDS011;5038;53.064;8.624;2023-12-22T12:06:16;13.80;;;4.70;;
9997;SDS011;5038;53.064;8.624;2023-12-22T12:08:49;18.03;;;5.20;;
9997;SDS011;5038;53.064;8.624;2023-12-22T12:11:18;11.13;;;4.80;;
9997;SDS011;5038;53.064;8.624;2023-12-22T12:13:47;12.03;;;4.20;;
9997;SDS011;5038;53.064;8.624;2023-12-22T12:16:18;11.33;;;3.57;;
9997;SDS011;5038;53.064;8.624;2023-12-22T12:18:48;10.53;;;4.63;;
9997;SDS011;5038;53.064;8.624;2023-12-22T12:21:20;9.50;;;3.70;;
9997;SDS011;5038;53.064;8.624;2023-12-22T12:23:50;12.67;;;3.87;;
9997;SDS011;5038;53.064;8.624;2023-12-22T12:26:19;11.90;;;4.20;;
9997;SDS011;5038;53.064;8.624;2023-12-22T12:28:47;8.10;;;2.83;;
9997;SDS011;5038;53.064;8.624;2023-12-22T12:31:16;11.47;;;3.40;;
9997;SDS011;5038;53.064;8.624;2023-12-22T12:33:44;10.93;;;3.93;;
9997;SDS011;5038;53.064;8.624;2023-12-22T12:36:14;11.13;;;3.20;;
9997;SDS011;5038;53.064;8.624;2023-12-22T12:38:48;9.43;;;3.50;;
9997;SDS011;5038;53.064;8.624;2023-12-22T12:41:23;12.60;;;3.47;;
9997;SDS011;5038;53.064;8.624;2023-12-22T12:44:01;19.07;;;4.43;;
9997;SDS011;5038;53.064;8.624;2023-12-22T12:46:32;9.60;;;3.13;;
9997;SDS011;5038;53.064;8.624;2023-12-22T12:49:04;11.50;;;3.57;;
9997;SDS011;5038;53.064;8.624;2023-12-22T12:51:36;8.70;;;3.70;;
9997;SDS011;5038;53.064;8.624;2023-12-22T12:54:07;10.00;;;3.17;;
9997;SDS011;5038;53.064;8.624;2023-12-22T12:56:37;10.47;;;3.37;;
9997;SDS011;5038;53.064;8.624;2023-12-22T12:59:07;9.97;;;3.00;;
9997;SDS011;5038;53.064;8.624;2023-12-22T13:01:39;11.87;;;3.40;;
9997;SDS011;5038;53.064;8.624;2023-12-22T13:04:08;9.13;;;3.30;;
9997;SDS011;5038;53.064;8.624;2023-12-22T13:06:42;7.20;;;2.73;;
9997;SDS011;5038;53.064;8.624;2023-12-22T13:09:12;6.63;;;2.70;;
9997;SDS011;5038;53.064;8.624;2023-12-22T13:11:41;8.47;;;2.97;;
9997;SDS011;5038;53.064;8.624;2023-12-22T13:14:10;10.50;;;3.73;;
9997;SDS011;5038;53.064;8.624;2023-12-22T13:16:39;9.07;;;3.10;;
9997;SDS011;5038;53.064;8.624;2023-12-22T13:19:07;6.60;;;2.80;;
9997;SDS011;5038;53.064;8.624;2023-12-22T13:21:36;10.40;;;2.83;;
9997;SDS011;5038;53.064;8.624;2023-12-22T13:24:07;13.13;;;5.07;;
9997;SDS011;5038;53.064;8.624;2023-12-22T13:26:38;8.37;;;2.87;;
9997;SDS011;5038;53.064;8.624;2023-12-22T13:29:07;8.27;;;2.90;;
9997;SDS011;5038;53.064;8.624;2023-12-22T13:31:36;10.20;;;3.13;;
9997;SDS011;5038;53.064;8.624;2023-12-22T13:34:09;6.90;;;2.47;;
9997;SDS011;5038;53.064;8.624;2023-12-22T13:36:38;8.50;;;3.33;;
9997;SDS011;5038;53.064;8.624;2023-12-22T13:39:06;7.60;;;2.90;;
9997;SDS011;5038;53.064;8.624;2023-12-22T13:41:39;8.70;;;3.30;;
9997;SDS011;5038;53.064;8.624;2023-12-22T13:44:12;10.87;;;3.27;;
9997;SDS011;5038;53.064;8.624;2023-12-22T13:46:44;7.57;;;3.00;;
9997;SDS011;5038;53.064;8.624;2023-12-22T13:49:13;12.53;;;3.67;;
9997;SDS011;5038;53.064;8.624;2023-12-22T13:51:42;12.13;;;3.20;;
9997;SDS011;5038;53.064;8.624;2023-12-22T13:54:11;8.27;;;2.93;;
9997;SDS011;5038;53.064;8.624;2023-12-22T13:56:41;18.30;;;3.67;;
9997;SDS011;5038;53.064;8.624;2023-12-22T13:59:12;10.87;;;2.90;;
9997;SDS011;5038;53.064;8.624;2023-12-22T14:01:40;6.13;;;2.40;;
9997;SDS011;5038;53.064;8.624;2023-12-22T14:04:09;5.77;;;1.87;;
9997;SDS011;5038;53.064;8.624;2023-12-22T14:06:37;5.47;;;1.80;;
9997;SDS011;5038;53.064;8.624;2023-12-22T14:09:06;2.83;;;1.50;;
9997;SDS011;5038;53.064;8.624;2023-12-22T14:11:35;5.47;;;1.67;;
9997;SDS011;5038;53.064;8.624;2023-12-22T14:14:11;7.13;;;1.53;;
9997;SDS011;5038;53.064;8.624;2023-12-22T14:16:39;3.67;;;1.53;;
9997;SDS011;5038;53.064;8.624;2023-12-22T14:19:07;3.77;;;1.37;;
9997;SDS011;5038;53.064;8.624;2023-12-22T14:21:36;6.90;;;2.00;;
9997;SDS011;5038;53.064;8.624;2023-12-22T14:24:04;5.53;;;1.70;;
9997;SDS011;5038;53.064;8.624;2023-12-22T14:26:32;6.77;;;1.80;;
9997;SDS011;5038;53.064;8.624;2023-12-22T14:29:17;4.67;;;1.53;;
9997;SDS011;5038;53.064;8.624;2023-12-22T14:31:46;5.67;;;1.80;;
9997;SDS011;5038;53.064;8.624;2023-12-22T14:34:14;7.30;;;2.37;;
9997;SDS011;5038;53.064;8.624;2023-12-22T14:36:43;5.53;;;2.23;;
9997;SDS011;5038;53.064;8.624;2023-12-22T14:39:11;4.27;;;1.83;;
9997;SDS011;5038;53.064;8.624;2023-12-22T14:41:40;6.90;;;1.97;;
9997;SDS011;5038;53.064;8.624;2023-12-22T14:44:09;5.10;;;1.87;;
9997;SDS011;5038;53.064;8.624;2023-12-22T14:46:39;5.53;;;2.50;;
9997;SDS011;5038;53.064;8.624;2023-12-22T14:49:07;4.60;;;1.77;;
9997;SDS011;5038;53.064;8.624;2023-12-22T14:51:36;5.50;;;1.67;;
9997;SDS011;5038;53.064;8.624;2023-12-22T14:54:04;8.00;;;1.77;;
9997;SDS011;5038;53.064;8.624;2023-12-22T14:56:33;6.33;;;1.30;;
9997;SDS011;5038;53.064;8.624;2023-12-22T14:59:01;5.23;;;1.53;;
9997;SDS011;5038;53.064;8.624;2023-12-22T15:01:30;4.70;;;1.50;;
9997;SDS011;5038;53.064;8.624;2023-12-22T15:04:02;5.60;;;2.70;;
9997;SDS011;5038;53.064;8.624;2023-12-22T15:06:30;3.00;;;1.30;;
9997;SDS011;5038;53.064;8.624;2023-12-22T15:09:00;3.87;;;1.30;;
9997;SDS011;5038;53.064;8.624;2023-12-22T15:11:29;3.40;;;1.33;;
9997;SDS011;5038;53.064;8.624;2023-12-22T15:14:00;4.97;;;1.80;;
9997;SDS011;5038;53.064;8.624;2023-12-22T15:16:28;3.57;;;1.50;;
9997;SDS011;5038;53.064;8.624;2023-12-22T15:18:56;4.07;;;1.37;;
9997;SDS011;5038;53.064;8.624;2023-12-22T15:21:26;4.87;;;1.40;;
9997;SDS011;5038;53.064;8.624;2023-12-22T15:23:54;6.20;;;1.57;;